createdAt,value
2016-09-29T00:00:01.596Z,0
2016-09-29T00:00:22.174Z,0
2016-09-29T00:00:42.766Z,0
2016-09-29T00:01:03.342Z,0
2016-09-29T00:01:23.925Z,0
2016-09-29T00:01:44.504Z,0
2016-09-29T00:02:05.081Z,0
2016-09-29T00:02:25.673Z,0
2016-09-29T00:02:46.263Z,0
2016-09-29T00:03:06.881Z,0
2016-09-29T00:03:27.456Z,0
2016-09-29T00:03:48.022Z,0
2016-09-29T00:04:08.593Z,0
2016-09-29T00:04:29.176Z,0
2016-09-29T00:04:49.756Z,0
2016-09-29T00:05:10.307Z,0
2016-09-29T00:05:30.877Z,0
2016-09-29T00:05:51.454Z,0
2016-09-29T00:06:12.044Z,0
2016-09-29T00:06:32.618Z,0
2016-09-29T00:06:53.191Z,0
2016-09-29T00:07:13.766Z,0
2016-09-29T00:07:34.359Z,0
2016-09-29T00:07:54.942Z,0
2016-09-29T00:08:15.540Z,0
2016-09-29T00:08:36.106Z,0
2016-09-29T00:08:56.689Z,0
2016-09-29T00:09:17.262Z,0
2016-09-29T00:09:37.838Z,0
2016-09-29T00:09:58.413Z,0
2016-09-29T00:10:18.990Z,0
2016-09-29T00:10:39.588Z,0
2016-09-29T00:11:00.176Z,0
2016-09-29T00:11:20.753Z,0
2016-09-29T00:11:41.369Z,0
2016-09-29T00:12:01.946Z,0
2016-09-29T00:12:22.543Z,0
2016-09-29T00:12:43.110Z,0
2016-09-29T00:13:03.690Z,0
2016-09-29T00:13:24.252Z,0
2016-09-29T00:13:44.821Z,0
2016-09-29T00:14:05.394Z,0
2016-09-29T00:14:25.978Z,0
2016-09-29T00:14:46.558Z,0
2016-09-29T00:15:07.127Z,0
2016-09-29T00:15:27.722Z,0
2016-09-29T00:15:48.323Z,0
2016-09-29T00:16:08.900Z,0
2016-09-29T00:16:29.471Z,0
2016-09-29T00:16:50.070Z,0
2016-09-29T00:17:10.648Z,0
2016-09-29T00:17:31.236Z,0
2016-09-29T00:17:51.835Z,0
2016-09-29T00:18:12.400Z,0
2016-09-29T00:18:32.973Z,0
2016-09-29T00:18:53.555Z,0
2016-09-29T00:19:14.154Z,0
2016-09-29T00:19:34.736Z,0
2016-09-29T00:19:55.301Z,0
2016-09-29T00:20:15.870Z,0
2016-09-29T00:20:36.445Z,0
2016-09-29T00:20:57.049Z,0
2016-09-29T00:21:17.652Z,0
2016-09-29T00:21:38.213Z,0
2016-09-29T00:21:58.789Z,0
2016-09-29T00:22:19.379Z,0
2016-09-29T00:22:39.982Z,0
2016-09-29T00:23:00.545Z,0
2016-09-29T00:23:21.129Z,0
2016-09-29T00:23:41.713Z,0
2016-09-29T00:24:02.306Z,0
2016-09-29T00:24:22.886Z,0
2016-09-29T00:24:43.452Z,0
2016-09-29T00:25:04.022Z,0
2016-09-29T00:25:24.647Z,0
2016-09-29T00:25:45.214Z,0
2016-09-29T00:26:05.785Z,0
2016-09-29T00:26:27.255Z,0
2016-09-29T00:26:47.853Z,0
2016-09-29T00:27:08.441Z,0
2016-09-29T00:27:29.032Z,0
2016-09-29T00:27:49.617Z,0
2016-09-29T00:28:10.198Z,0
2016-09-29T00:28:30.809Z,0
2016-09-29T00:28:51.387Z,0
2016-09-29T00:29:11.978Z,0
2016-09-29T00:29:32.562Z,0
2016-09-29T00:29:53.140Z,0
2016-09-29T00:30:13.715Z,0
2016-09-29T00:30:34.294Z,0
2016-09-29T00:30:54.880Z,0
2016-09-29T00:31:15.451Z,0
2016-09-29T00:31:36.032Z,0
2016-09-29T00:31:56.636Z,0
2016-09-29T00:32:17.252Z,0
2016-09-29T00:32:37.833Z,0
2016-09-29T00:32:58.415Z,0
2016-09-29T00:33:19.020Z,0
2016-09-29T00:33:39.600Z,0
2016-09-29T00:34:00.175Z,0
2016-09-29T00:34:20.733Z,0
2016-09-29T00:34:41.292Z,0
2016-09-29T00:35:01.898Z,0
2016-09-29T00:35:22.492Z,0
2016-09-29T00:35:43.096Z,0
2016-09-29T00:36:03.665Z,0
2016-09-29T00:36:24.272Z,0
2016-09-29T00:36:44.874Z,0
2016-09-29T00:37:05.447Z,0
2016-09-29T00:37:26.031Z,0
2016-09-29T00:37:46.607Z,0
2016-09-29T00:38:07.191Z,0
2016-09-29T00:38:27.761Z,0
2016-09-29T00:38:48.355Z,0
2016-09-29T00:39:08.936Z,0
2016-09-29T00:39:29.512Z,0
2016-09-29T00:39:50.094Z,0
2016-09-29T00:40:10.675Z,0
2016-09-29T00:40:31.265Z,0
2016-09-29T00:40:51.831Z,0
2016-09-29T00:41:12.392Z,0
2016-09-29T00:41:32.979Z,0
2016-09-29T00:41:53.569Z,0
2016-09-29T00:42:14.152Z,0
2016-09-29T00:42:34.726Z,0
2016-09-29T00:42:55.302Z,0
2016-09-29T00:43:15.876Z,0
2016-09-29T00:43:36.447Z,0
2016-09-29T00:43:57.029Z,0
2016-09-29T00:44:17.598Z,0
2016-09-29T00:44:38.216Z,0
2016-09-29T00:44:58.792Z,0
2016-09-29T00:45:19.382Z,0
2016-09-29T00:45:39.955Z,0
2016-09-29T00:46:00.538Z,0
2016-09-29T00:46:21.121Z,0
2016-09-29T00:46:41.696Z,0
2016-09-29T00:47:02.273Z,0
2016-09-29T00:47:22.835Z,0
2016-09-29T00:47:43.416Z,0
2016-09-29T00:48:04.011Z,0
2016-09-29T00:48:24.585Z,0
2016-09-29T00:48:45.163Z,0
2016-09-29T00:49:05.721Z,0
2016-09-29T00:49:26.302Z,0
2016-09-29T00:49:46.892Z,0
2016-09-29T00:50:07.486Z,0
2016-09-29T00:50:28.055Z,0
2016-09-29T00:50:48.637Z,0
2016-09-29T00:51:09.219Z,0
2016-09-29T00:51:29.792Z,0
2016-09-29T00:51:50.384Z,0
2016-09-29T00:52:10.956Z,0
2016-09-29T00:52:31.536Z,0
2016-09-29T00:52:52.126Z,0
2016-09-29T00:53:12.707Z,0
2016-09-29T00:53:33.256Z,0
2016-09-29T00:53:53.849Z,0
2016-09-29T00:54:14.423Z,0
2016-09-29T00:54:35.011Z,0
2016-09-29T00:54:55.595Z,0
2016-09-29T00:55:17.330Z,0
2016-09-29T00:55:37.923Z,0
2016-09-29T00:55:58.505Z,0
2016-09-29T00:56:19.103Z,0
2016-09-29T00:56:39.707Z,0
2016-09-29T00:57:00.270Z,0
2016-09-29T00:57:20.842Z,0
2016-09-29T00:57:41.418Z,0
2016-09-29T00:58:02.014Z,0
2016-09-29T00:58:22.585Z,0
2016-09-29T00:58:43.168Z,0
2016-09-29T00:59:03.753Z,0
2016-09-29T00:59:24.330Z,0
2016-09-29T00:59:44.918Z,0
2016-09-29T01:00:05.501Z,0
2016-09-29T01:00:26.095Z,0
2016-09-29T01:00:46.678Z,0
2016-09-29T01:01:07.263Z,0
2016-09-29T01:01:27.835Z,0
2016-09-29T01:01:48.420Z,0
2016-09-29T01:02:09.006Z,0
2016-09-29T01:02:29.594Z,0
2016-09-29T01:02:50.185Z,0
2016-09-29T01:03:10.740Z,0
2016-09-29T01:03:31.304Z,0
2016-09-29T01:03:51.890Z,0
2016-09-29T01:04:12.456Z,0
2016-09-29T01:04:33.043Z,0
2016-09-29T01:04:53.611Z,0
2016-09-29T01:05:14.186Z,0
2016-09-29T01:05:34.760Z,0
2016-09-29T01:05:55.359Z,0
2016-09-29T01:06:15.927Z,0
2016-09-29T01:06:36.556Z,0
2016-09-29T01:06:57.140Z,0
2016-09-29T01:07:17.751Z,0
2016-09-29T01:07:38.345Z,0
2016-09-29T01:07:59.121Z,0
2016-09-29T01:08:19.690Z,0
2016-09-29T01:08:40.271Z,0
2016-09-29T01:09:00.839Z,0
2016-09-29T01:09:21.437Z,0
2016-09-29T01:09:42.003Z,0
2016-09-29T01:10:02.566Z,0
2016-09-29T01:10:23.144Z,0
2016-09-29T01:10:43.742Z,0
2016-09-29T01:11:04.323Z,0
2016-09-29T01:11:24.897Z,0
2016-09-29T01:11:45.479Z,0
2016-09-29T01:12:06.047Z,0
2016-09-29T01:12:26.642Z,0
2016-09-29T01:12:47.251Z,0
2016-09-29T01:13:07.842Z,0
2016-09-29T01:13:28.393Z,0
2016-09-29T01:13:48.960Z,0
2016-09-29T01:14:09.536Z,0
2016-09-29T01:14:30.137Z,0
2016-09-29T01:14:50.716Z,0
2016-09-29T01:15:11.310Z,0
2016-09-29T01:15:31.879Z,0
2016-09-29T01:15:52.467Z,0
2016-09-29T01:16:13.045Z,0
2016-09-29T01:16:33.620Z,0
2016-09-29T01:16:54.204Z,0
2016-09-29T01:17:14.772Z,0
2016-09-29T01:17:35.334Z,0
2016-09-29T01:17:55.910Z,0
2016-09-29T01:18:16.499Z,0
2016-09-29T01:18:37.106Z,0
2016-09-29T01:18:57.686Z,0
2016-09-29T01:19:18.262Z,0
2016-09-29T01:19:38.836Z,0
2016-09-29T01:19:59.432Z,0
2016-09-29T01:20:20.005Z,0
2016-09-29T01:20:40.597Z,0
2016-09-29T01:21:01.169Z,0
2016-09-29T01:21:21.740Z,0
2016-09-29T01:21:42.322Z,0
2016-09-29T01:22:02.900Z,0
2016-09-29T01:22:23.464Z,0
2016-09-29T01:22:44.035Z,0
2016-09-29T01:23:04.658Z,0
2016-09-29T01:23:25.242Z,0
2016-09-29T01:23:45.826Z,0
2016-09-29T01:24:06.412Z,0
2016-09-29T01:24:26.993Z,0
2016-09-29T01:24:47.563Z,0
2016-09-29T01:25:08.791Z,0
2016-09-29T01:25:29.387Z,0
2016-09-29T01:25:50.008Z,0
2016-09-29T01:26:10.592Z,0
2016-09-29T01:26:31.180Z,0
2016-09-29T01:26:51.758Z,0
2016-09-29T01:27:12.346Z,0
2016-09-29T01:27:32.917Z,0
2016-09-29T01:27:53.482Z,0
2016-09-29T01:28:14.062Z,0
2016-09-29T01:28:34.623Z,0
2016-09-29T01:28:55.353Z,0
2016-09-29T01:29:15.972Z,0
2016-09-29T01:29:36.554Z,0
2016-09-29T01:29:57.149Z,0
2016-09-29T01:30:17.746Z,0
2016-09-29T01:30:38.435Z,0
2016-09-29T01:30:59.007Z,0
2016-09-29T01:31:19.573Z,0
2016-09-29T01:31:40.158Z,0
2016-09-29T01:32:00.737Z,0
2016-09-29T01:32:21.316Z,0
2016-09-29T01:32:41.888Z,0
2016-09-29T01:33:02.467Z,0
2016-09-29T01:33:23.049Z,0
2016-09-29T01:33:43.628Z,0
2016-09-29T01:34:04.296Z,0
2016-09-29T01:34:24.865Z,0
2016-09-29T01:34:45.433Z,0
2016-09-29T01:35:06.015Z,0
2016-09-29T01:35:26.613Z,0
2016-09-29T01:35:47.214Z,0
2016-09-29T01:36:07.808Z,0
2016-09-29T01:36:28.383Z,0
2016-09-29T01:36:48.974Z,0
2016-09-29T01:37:09.563Z,0
2016-09-29T01:37:30.156Z,0
2016-09-29T01:37:50.728Z,0
2016-09-29T01:38:11.297Z,0
2016-09-29T01:38:31.877Z,0
2016-09-29T01:38:52.449Z,0
2016-09-29T01:39:13.020Z,0
2016-09-29T01:39:33.599Z,0
2016-09-29T01:39:54.170Z,0
2016-09-29T01:40:14.750Z,0
2016-09-29T01:40:35.316Z,0
2016-09-29T01:40:55.900Z,0
2016-09-29T01:41:16.501Z,0
2016-09-29T01:41:37.140Z,0
2016-09-29T01:41:57.706Z,0
2016-09-29T01:42:18.279Z,0
2016-09-29T01:42:38.854Z,0
2016-09-29T01:42:59.433Z,0
2016-09-29T01:43:19.996Z,0
2016-09-29T01:43:40.568Z,0
2016-09-29T01:44:01.165Z,0
2016-09-29T01:44:21.766Z,0
2016-09-29T01:44:42.388Z,0
2016-09-29T01:45:02.956Z,0
2016-09-29T01:45:23.520Z,0
2016-09-29T01:45:44.094Z,0
2016-09-29T01:46:04.670Z,0
2016-09-29T01:46:25.262Z,0
2016-09-29T01:46:45.835Z,0
2016-09-29T01:47:06.400Z,0
2016-09-29T01:47:26.987Z,0
2016-09-29T01:47:47.576Z,0
2016-09-29T01:48:08.150Z,0
2016-09-29T01:48:28.715Z,0
2016-09-29T01:48:49.283Z,0
2016-09-29T01:49:09.864Z,0
2016-09-29T01:49:30.432Z,0
2016-09-29T01:49:51.003Z,0
2016-09-29T01:50:11.595Z,0
2016-09-29T01:50:32.182Z,0
2016-09-29T01:50:52.772Z,0
2016-09-29T01:51:13.358Z,0
2016-09-29T01:51:33.934Z,0
2016-09-29T01:51:54.499Z,0
2016-09-29T01:52:15.082Z,0
2016-09-29T01:52:35.665Z,0
2016-09-29T01:52:56.246Z,0
2016-09-29T01:53:16.802Z,0
2016-09-29T01:53:37.377Z,0
2016-09-29T01:53:57.970Z,0
2016-09-29T01:54:18.565Z,0
2016-09-29T01:54:39.155Z,0
2016-09-29T01:54:59.731Z,0
2016-09-29T01:55:20.298Z,0
2016-09-29T01:55:40.892Z,0
2016-09-29T01:56:01.476Z,0
2016-09-29T01:56:22.059Z,0
2016-09-29T01:56:42.638Z,0
2016-09-29T01:57:03.210Z,0
2016-09-29T01:57:23.791Z,0
2016-09-29T01:57:44.365Z,0
2016-09-29T01:58:04.939Z,0
2016-09-29T01:58:25.517Z,0
2016-09-29T01:58:46.085Z,0
2016-09-29T01:59:06.658Z,0
2016-09-29T01:59:27.239Z,0
2016-09-29T01:59:47.805Z,0
2016-09-29T02:00:08.399Z,0
2016-09-29T02:00:28.977Z,0
2016-09-29T02:00:49.536Z,0
2016-09-29T02:01:10.125Z,0
2016-09-29T02:01:30.692Z,0
2016-09-29T02:01:51.272Z,0
2016-09-29T02:02:11.843Z,0
2016-09-29T02:02:32.434Z,0
2016-09-29T02:02:53.007Z,0
2016-09-29T02:03:13.583Z,0
2016-09-29T02:03:34.166Z,0
2016-09-29T02:03:54.770Z,0
2016-09-29T02:04:15.345Z,0
2016-09-29T02:04:35.899Z,0
2016-09-29T02:04:56.475Z,0
2016-09-29T02:05:17.050Z,0
2016-09-29T02:05:37.662Z,0
2016-09-29T02:05:58.250Z,0
2016-09-29T02:06:18.815Z,0
2016-09-29T02:06:39.386Z,0
2016-09-29T02:06:59.974Z,0
2016-09-29T02:07:20.544Z,0
2016-09-29T02:07:41.105Z,0
2016-09-29T02:08:01.669Z,0
2016-09-29T02:08:22.257Z,0
2016-09-29T02:08:42.844Z,0
2016-09-29T02:09:03.428Z,0
2016-09-29T02:09:24.013Z,0
2016-09-29T02:09:44.579Z,0
2016-09-29T02:10:05.356Z,0
2016-09-29T02:10:25.951Z,0
2016-09-29T02:10:46.519Z,0
2016-09-29T02:11:07.077Z,0
2016-09-29T02:11:27.663Z,0
2016-09-29T02:11:48.250Z,0
2016-09-29T02:12:08.826Z,0
2016-09-29T02:12:29.390Z,0
2016-09-29T02:12:49.964Z,0
2016-09-29T02:13:10.540Z,0
2016-09-29T02:13:31.137Z,0
2016-09-29T02:13:51.737Z,0
2016-09-29T02:14:12.300Z,0
2016-09-29T02:14:32.876Z,0
2016-09-29T02:14:53.449Z,0
2016-09-29T02:15:14.036Z,0
2016-09-29T02:15:34.624Z,0
2016-09-29T02:15:55.180Z,0
2016-09-29T02:16:15.749Z,0
2016-09-29T02:16:36.322Z,0
2016-09-29T02:16:56.897Z,0
2016-09-29T02:17:17.465Z,0
2016-09-29T02:17:38.033Z,0
2016-09-29T02:17:58.606Z,0
2016-09-29T02:18:19.185Z,0
2016-09-29T02:18:39.774Z,0
2016-09-29T02:19:00.342Z,0
2016-09-29T02:19:20.914Z,0
2016-09-29T02:19:41.483Z,0
2016-09-29T02:20:02.096Z,0
2016-09-29T02:20:22.673Z,0
2016-09-29T02:20:43.263Z,0
2016-09-29T02:21:03.834Z,0
2016-09-29T02:21:24.419Z,0
2016-09-29T02:21:44.997Z,0
2016-09-29T02:22:05.577Z,0
2016-09-29T02:22:26.145Z,0
2016-09-29T02:22:46.737Z,0
2016-09-29T02:23:07.314Z,0
2016-09-29T02:23:27.906Z,0
2016-09-29T02:23:48.482Z,0
2016-09-29T02:24:09.053Z,0
2016-09-29T02:24:29.616Z,0
2016-09-29T02:24:50.191Z,0
2016-09-29T02:25:10.772Z,0
2016-09-29T02:25:31.354Z,0
2016-09-29T02:25:51.935Z,0
2016-09-29T02:26:12.503Z,0
2016-09-29T02:26:33.104Z,0
2016-09-29T02:26:53.688Z,0
2016-09-29T02:27:14.246Z,0
2016-09-29T02:27:34.813Z,0
2016-09-29T02:27:55.406Z,0
2016-09-29T02:28:15.993Z,0
2016-09-29T02:28:36.579Z,0
2016-09-29T02:28:57.157Z,0
2016-09-29T02:29:17.747Z,0
2016-09-29T02:29:38.334Z,0
2016-09-29T02:29:58.913Z,0
2016-09-29T02:30:19.513Z,0
2016-09-29T02:30:40.077Z,0
2016-09-29T02:31:00.660Z,0
2016-09-29T02:31:21.243Z,0
2016-09-29T02:31:41.823Z,0
2016-09-29T02:32:02.396Z,0
2016-09-29T02:32:22.979Z,0
2016-09-29T02:32:43.546Z,0
2016-09-29T02:33:04.113Z,0
2016-09-29T02:33:24.692Z,0
2016-09-29T02:33:45.246Z,0
2016-09-29T02:34:05.839Z,0
2016-09-29T02:34:26.411Z,0
2016-09-29T02:34:46.992Z,0
2016-09-29T02:35:07.559Z,0
2016-09-29T02:35:28.116Z,0
2016-09-29T02:35:48.696Z,0
2016-09-29T02:36:09.280Z,0
2016-09-29T02:36:29.848Z,0
2016-09-29T02:36:50.417Z,0
2016-09-29T02:37:11.004Z,0
2016-09-29T02:37:31.581Z,0
2016-09-29T02:37:52.147Z,0
2016-09-29T02:38:12.722Z,0
2016-09-29T02:38:33.290Z,0
2016-09-29T02:38:53.872Z,0
2016-09-29T02:39:14.451Z,0
2016-09-29T02:39:35.041Z,0
2016-09-29T02:39:55.646Z,0
2016-09-29T02:40:16.206Z,0
2016-09-29T02:40:36.772Z,0
2016-09-29T02:40:57.359Z,0
2016-09-29T02:41:17.956Z,0
2016-09-29T02:41:38.526Z,0
2016-09-29T02:41:59.097Z,0
2016-09-29T02:42:19.665Z,0
2016-09-29T02:42:40.241Z,0
2016-09-29T02:43:00.804Z,0
2016-09-29T02:43:21.371Z,0
2016-09-29T02:43:41.950Z,0
2016-09-29T02:44:02.528Z,0
2016-09-29T02:44:23.104Z,0
2016-09-29T02:44:43.696Z,0
2016-09-29T02:45:04.272Z,0
2016-09-29T02:45:24.835Z,0
2016-09-29T02:45:45.417Z,0
2016-09-29T02:46:06.012Z,0
2016-09-29T02:46:26.581Z,0
2016-09-29T02:46:47.173Z,0
2016-09-29T02:47:07.745Z,0
2016-09-29T02:47:28.386Z,0
2016-09-29T02:47:48.976Z,0
2016-09-29T02:48:09.549Z,0
2016-09-29T02:48:30.108Z,0
2016-09-29T02:48:50.676Z,0
2016-09-29T02:49:11.270Z,0
2016-09-29T02:49:31.840Z,0
2016-09-29T02:49:52.436Z,0
2016-09-29T02:50:13.006Z,0
2016-09-29T02:50:33.579Z,0
2016-09-29T02:50:54.155Z,0
2016-09-29T02:51:14.780Z,0
2016-09-29T02:51:35.378Z,0
2016-09-29T02:51:55.959Z,0
2016-09-29T02:52:16.563Z,0
2016-09-29T02:52:37.144Z,0
2016-09-29T02:52:57.700Z,0
2016-09-29T02:53:18.270Z,0
2016-09-29T02:53:38.853Z,0
2016-09-29T02:53:59.423Z,0
2016-09-29T02:54:19.999Z,0
2016-09-29T02:54:40.562Z,0
2016-09-29T02:55:01.135Z,0
2016-09-29T02:55:21.695Z,0
2016-09-29T02:55:42.283Z,0
2016-09-29T02:56:02.870Z,0
2016-09-29T02:56:23.440Z,0
2016-09-29T02:56:44.018Z,0
2016-09-29T02:57:04.601Z,0
2016-09-29T02:57:25.186Z,0
2016-09-29T02:57:45.749Z,0
2016-09-29T02:58:06.361Z,0
2016-09-29T02:58:26.934Z,0
2016-09-29T02:58:47.505Z,0
2016-09-29T02:59:08.099Z,0
2016-09-29T02:59:28.675Z,0
2016-09-29T02:59:49.251Z,0
2016-09-29T03:00:09.818Z,0
2016-09-29T03:00:30.386Z,0
2016-09-29T03:00:50.962Z,0
2016-09-29T03:01:11.547Z,0
2016-09-29T03:01:32.148Z,0
2016-09-29T03:01:52.731Z,0
2016-09-29T03:02:13.306Z,0
2016-09-29T03:02:33.897Z,0
2016-09-29T03:02:54.484Z,0
2016-09-29T03:03:15.072Z,0
2016-09-29T03:03:35.668Z,0
2016-09-29T03:03:56.242Z,0
2016-09-29T03:04:16.809Z,0
2016-09-29T03:04:37.408Z,0
2016-09-29T03:04:57.978Z,0
2016-09-29T03:05:18.575Z,0
2016-09-29T03:05:39.148Z,0
2016-09-29T03:05:59.722Z,0
2016-09-29T03:06:20.337Z,0
2016-09-29T03:06:40.925Z,0
2016-09-29T03:07:01.525Z,0
2016-09-29T03:07:22.113Z,0
2016-09-29T03:07:42.703Z,0
2016-09-29T03:08:03.276Z,0
2016-09-29T03:08:23.872Z,0
2016-09-29T03:08:44.438Z,0
2016-09-29T03:09:05.010Z,0
2016-09-29T03:09:25.587Z,0
2016-09-29T03:09:46.168Z,0
2016-09-29T03:10:06.752Z,0
2016-09-29T03:10:27.310Z,0
2016-09-29T03:10:47.896Z,0
2016-09-29T03:11:08.515Z,0
2016-09-29T03:11:29.097Z,0
2016-09-29T03:11:49.671Z,0
2016-09-29T03:12:10.236Z,0
2016-09-29T03:12:30.807Z,0
2016-09-29T03:12:51.392Z,0
2016-09-29T03:13:12.005Z,0
2016-09-29T03:13:32.576Z,0
2016-09-29T03:13:53.156Z,0
2016-09-29T03:14:13.751Z,0
2016-09-29T03:14:34.336Z,0
2016-09-29T03:14:54.906Z,0
2016-09-29T03:15:15.487Z,0
2016-09-29T03:15:36.076Z,0
2016-09-29T03:15:56.675Z,0
2016-09-29T03:16:17.255Z,0
2016-09-29T03:16:37.810Z,0
2016-09-29T03:16:58.390Z,0
2016-09-29T03:17:18.962Z,0
2016-09-29T03:17:39.552Z,0
2016-09-29T03:18:00.138Z,0
2016-09-29T03:18:20.716Z,0
2016-09-29T03:18:41.298Z,0
2016-09-29T03:19:01.875Z,0
2016-09-29T03:19:22.458Z,0
2016-09-29T03:19:43.037Z,0
2016-09-29T03:20:03.634Z,0
2016-09-29T03:20:24.232Z,0
2016-09-29T03:20:44.826Z,0
2016-09-29T03:21:05.442Z,0
2016-09-29T03:21:26.018Z,0
2016-09-29T03:21:46.602Z,0
2016-09-29T03:22:07.187Z,0
2016-09-29T03:22:27.754Z,0
2016-09-29T03:22:48.318Z,0
2016-09-29T03:23:08.886Z,0
2016-09-29T03:23:29.476Z,0
2016-09-29T03:23:50.078Z,0
2016-09-29T03:24:10.643Z,0
2016-09-29T03:24:31.215Z,0
2016-09-29T03:24:51.802Z,0
2016-09-29T03:25:12.395Z,0
2016-09-29T03:25:33.020Z,0
2016-09-29T03:25:53.595Z,0
2016-09-29T03:26:14.168Z,0
2016-09-29T03:26:34.757Z,0
2016-09-29T03:26:55.376Z,0
2016-09-29T03:27:15.963Z,0
2016-09-29T03:27:36.564Z,0
2016-09-29T03:27:57.136Z,0
2016-09-29T03:28:17.733Z,0
2016-09-29T03:28:38.312Z,0
2016-09-29T03:28:58.861Z,0
2016-09-29T03:29:19.433Z,0
2016-09-29T03:29:40.021Z,0
2016-09-29T03:30:00.598Z,0
2016-09-29T03:30:21.166Z,0
2016-09-29T03:30:41.739Z,0
2016-09-29T03:31:02.305Z,0
2016-09-29T03:31:22.908Z,0
2016-09-29T03:31:43.528Z,0
2016-09-29T03:32:04.095Z,0
2016-09-29T03:32:24.679Z,0
2016-09-29T03:32:45.276Z,0
2016-09-29T03:33:05.856Z,0
2016-09-29T03:33:26.423Z,0
2016-09-29T03:33:46.985Z,0
2016-09-29T03:34:07.577Z,0
2016-09-29T03:34:28.163Z,0
2016-09-29T03:34:48.844Z,0
2016-09-29T03:35:09.415Z,0
2016-09-29T03:35:30.001Z,0
2016-09-29T03:35:50.599Z,0
2016-09-29T03:36:11.186Z,0
2016-09-29T03:36:31.767Z,0
2016-09-29T03:36:52.379Z,0
2016-09-29T03:37:12.959Z,0
2016-09-29T03:37:33.541Z,0
2016-09-29T03:37:54.126Z,0
2016-09-29T03:38:14.702Z,0
2016-09-29T03:38:35.288Z,0
2016-09-29T03:38:55.880Z,0
2016-09-29T03:39:16.491Z,0
2016-09-29T03:39:37.059Z,0
2016-09-29T03:39:57.644Z,0
2016-09-29T03:40:18.234Z,0
2016-09-29T03:40:38.844Z,0
2016-09-29T03:40:59.417Z,0
2016-09-29T03:41:20.029Z,0
2016-09-29T03:41:40.627Z,0
2016-09-29T03:42:01.205Z,0
2016-09-29T03:42:21.767Z,0
2016-09-29T03:42:42.344Z,0
2016-09-29T03:43:02.916Z,0
2016-09-29T03:43:23.507Z,0
2016-09-29T03:43:44.079Z,0
2016-09-29T03:44:04.636Z,0
2016-09-29T03:44:25.219Z,0
2016-09-29T03:44:45.803Z,0
2016-09-29T03:45:06.371Z,0
2016-09-29T03:45:26.944Z,0
2016-09-29T03:45:47.508Z,0
2016-09-29T03:46:08.070Z,0
2016-09-29T03:46:28.629Z,0
2016-09-29T03:46:49.200Z,0
2016-09-29T03:47:09.770Z,0
2016-09-29T03:47:30.354Z,0
2016-09-29T03:47:50.925Z,0
2016-09-29T03:48:11.510Z,0
2016-09-29T03:48:32.082Z,0
2016-09-29T03:48:52.659Z,0
2016-09-29T03:49:13.232Z,0
2016-09-29T03:49:33.846Z,0
2016-09-29T03:49:54.457Z,0
2016-09-29T03:50:15.028Z,0
2016-09-29T03:50:35.602Z,0
2016-09-29T03:50:56.192Z,0
2016-09-29T03:51:16.868Z,0
2016-09-29T03:51:37.430Z,0
2016-09-29T03:51:58.003Z,0
2016-09-29T03:52:18.577Z,0
2016-09-29T03:52:39.147Z,0
2016-09-29T03:52:59.759Z,0
2016-09-29T03:53:20.340Z,0
2016-09-29T03:53:40.912Z,0
2016-09-29T03:54:01.498Z,0
2016-09-29T03:54:22.105Z,0
2016-09-29T03:54:42.692Z,0
2016-09-29T03:55:03.264Z,0
2016-09-29T03:55:23.839Z,0
2016-09-29T03:55:44.449Z,0
2016-09-29T03:56:05.054Z,0
2016-09-29T03:56:25.635Z,0
2016-09-29T03:56:46.222Z,0
2016-09-29T03:57:06.794Z,0
2016-09-29T03:57:27.411Z,0
2016-09-29T03:57:48.024Z,0
2016-09-29T03:58:08.579Z,0
2016-09-29T03:58:29.159Z,0
2016-09-29T03:58:49.766Z,0
2016-09-29T03:59:10.334Z,0
2016-09-29T03:59:30.900Z,0
2016-09-29T03:59:51.476Z,0
2016-09-29T04:00:12.042Z,0
2016-09-29T04:00:32.624Z,0
2016-09-29T04:00:53.202Z,0
2016-09-29T04:01:13.793Z,0
2016-09-29T04:01:34.359Z,0
2016-09-29T04:01:54.968Z,0
2016-09-29T04:02:15.535Z,0
2016-09-29T04:02:36.114Z,0
2016-09-29T04:02:56.690Z,0
2016-09-29T04:03:17.276Z,0
2016-09-29T04:03:37.848Z,0
2016-09-29T04:03:58.433Z,0
2016-09-29T04:04:18.995Z,0
2016-09-29T04:04:39.569Z,0
2016-09-29T04:05:00.150Z,0
2016-09-29T04:05:20.741Z,0
2016-09-29T04:05:41.326Z,0
2016-09-29T04:06:01.917Z,0
2016-09-29T04:06:22.582Z,0
2016-09-29T04:06:43.160Z,0
2016-09-29T04:07:03.749Z,0
2016-09-29T04:07:24.348Z,0
2016-09-29T04:07:44.949Z,0
2016-09-29T04:08:05.548Z,0
2016-09-29T04:08:26.129Z,0
2016-09-29T04:08:46.702Z,0
2016-09-29T04:09:07.272Z,0
2016-09-29T04:09:27.869Z,0
2016-09-29T04:09:48.468Z,0
2016-09-29T04:10:09.035Z,0
2016-09-29T04:10:29.613Z,0
2016-09-29T04:10:50.197Z,0
2016-09-29T04:11:10.797Z,0
2016-09-29T04:11:31.382Z,0
2016-09-29T04:11:51.946Z,0
2016-09-29T04:12:12.524Z,0
2016-09-29T04:12:33.094Z,0
2016-09-29T04:12:53.682Z,0
2016-09-29T04:13:14.275Z,0
2016-09-29T04:13:34.851Z,0
2016-09-29T04:13:55.413Z,0
2016-09-29T04:14:15.992Z,0
2016-09-29T04:14:36.587Z,0
2016-09-29T04:14:57.171Z,0
2016-09-29T04:15:17.745Z,0
2016-09-29T04:15:38.320Z,0
2016-09-29T04:15:58.898Z,0
2016-09-29T04:16:19.483Z,0
2016-09-29T04:16:40.060Z,0
2016-09-29T04:17:00.647Z,0
2016-09-29T04:17:21.246Z,0
2016-09-29T04:17:41.815Z,0
2016-09-29T04:18:02.395Z,0
2016-09-29T04:18:22.982Z,0
2016-09-29T04:18:43.550Z,0
2016-09-29T04:19:04.121Z,0
2016-09-29T04:19:24.693Z,0
2016-09-29T04:19:45.265Z,0
2016-09-29T04:20:05.841Z,0
2016-09-29T04:20:26.414Z,0
2016-09-29T04:20:47.003Z,0
2016-09-29T04:21:07.584Z,0
2016-09-29T04:21:28.243Z,0
2016-09-29T04:21:48.848Z,0
2016-09-29T04:22:09.452Z,0
2016-09-29T04:22:30.019Z,0
2016-09-29T04:22:50.591Z,0
2016-09-29T04:23:11.152Z,0
2016-09-29T04:23:31.745Z,0
2016-09-29T04:23:52.341Z,0
2016-09-29T04:24:12.931Z,0
2016-09-29T04:24:33.508Z,0
2016-09-29T04:24:54.086Z,0
2016-09-29T04:25:14.653Z,0
2016-09-29T04:25:35.225Z,0
2016-09-29T04:25:55.796Z,0
2016-09-29T04:26:16.374Z,0
2016-09-29T04:26:36.942Z,0
2016-09-29T04:26:57.525Z,0
2016-09-29T04:27:18.119Z,0
2016-09-29T04:27:38.709Z,0
2016-09-29T04:27:59.296Z,0
2016-09-29T04:28:19.873Z,0
2016-09-29T04:28:40.461Z,0
2016-09-29T04:29:01.038Z,0
2016-09-29T04:29:21.637Z,0
2016-09-29T04:29:42.197Z,0
2016-09-29T04:30:02.797Z,0
2016-09-29T04:30:23.376Z,0
2016-09-29T04:30:43.947Z,0
2016-09-29T04:31:04.527Z,0
2016-09-29T04:31:25.100Z,0
2016-09-29T04:31:45.671Z,0
2016-09-29T04:32:06.243Z,0
2016-09-29T04:32:26.832Z,0
2016-09-29T04:32:47.406Z,0
2016-09-29T04:33:07.978Z,0
2016-09-29T04:33:28.553Z,0
2016-09-29T04:33:49.119Z,0
2016-09-29T04:34:09.701Z,0
2016-09-29T04:34:30.272Z,0
2016-09-29T04:34:50.868Z,4
2016-09-29T04:35:11.438Z,4
2016-09-29T04:35:32.007Z,4
2016-09-29T04:35:52.590Z,4
2016-09-29T04:36:13.161Z,4
2016-09-29T04:36:33.819Z,4
2016-09-29T04:36:54.440Z,4
2016-09-29T04:37:15.014Z,4
2016-09-29T04:37:35.596Z,0
2016-09-29T04:37:56.181Z,0
2016-09-29T04:38:16.769Z,4
2016-09-29T04:38:37.346Z,4
2016-09-29T04:38:57.931Z,4
2016-09-29T04:39:18.506Z,4
2016-09-29T04:39:39.104Z,4
2016-09-29T04:39:59.704Z,4
2016-09-29T04:40:20.281Z,8
2016-09-29T04:40:40.880Z,8
2016-09-29T04:41:01.442Z,8
2016-09-29T04:41:22.029Z,4
2016-09-29T04:41:42.610Z,4
2016-09-29T04:42:03.294Z,8
2016-09-29T04:42:23.924Z,8
2016-09-29T04:42:44.543Z,8
2016-09-29T04:43:05.133Z,8
2016-09-29T04:43:25.777Z,8
2016-09-29T04:43:46.367Z,8
2016-09-29T04:44:07.000Z,12
2016-09-29T04:44:27.618Z,12
2016-09-29T04:44:48.197Z,12
2016-09-29T04:45:08.804Z,12
2016-09-29T04:45:29.455Z,16
2016-09-29T04:45:50.035Z,12
2016-09-29T04:46:10.633Z,16
2016-09-29T04:46:31.210Z,12
2016-09-29T04:46:51.855Z,16
2016-09-29T04:47:12.426Z,20
2016-09-29T04:47:33.003Z,16
2016-09-29T04:47:53.571Z,20
2016-09-29T04:48:14.168Z,20
2016-09-29T04:48:34.741Z,20
2016-09-29T04:48:55.293Z,24
2016-09-29T04:49:15.865Z,20
2016-09-29T04:49:36.459Z,24
2016-09-29T04:49:57.056Z,24
2016-09-29T04:50:17.651Z,28
2016-09-29T04:50:38.263Z,24
2016-09-29T04:50:58.883Z,24
2016-09-29T04:51:19.545Z,28
2016-09-29T04:51:40.126Z,32
2016-09-29T04:52:00.718Z,32
2016-09-29T04:52:21.304Z,32
2016-09-29T04:52:41.904Z,36
2016-09-29T04:53:02.473Z,36
2016-09-29T04:53:23.056Z,40
2016-09-29T04:53:43.636Z,40
2016-09-29T04:54:04.221Z,44
2016-09-29T04:54:24.802Z,44
2016-09-29T04:54:45.372Z,48
2016-09-29T04:55:05.951Z,48
2016-09-29T04:55:26.566Z,52
2016-09-29T04:55:47.150Z,52
2016-09-29T04:56:07.759Z,56
2016-09-29T04:56:28.346Z,56
2016-09-29T04:56:48.937Z,60
2016-09-29T04:57:09.530Z,60
2016-09-29T04:57:30.126Z,64
2016-09-29T04:57:50.689Z,64
2016-09-29T04:58:11.264Z,68
2016-09-29T04:58:31.841Z,68
2016-09-29T04:58:52.440Z,68
2016-09-29T04:59:13.018Z,68
2016-09-29T04:59:33.588Z,68
2016-09-29T04:59:54.173Z,76
2016-09-29T05:00:14.752Z,76
2016-09-29T05:00:35.346Z,80
2016-09-29T05:00:55.935Z,80
2016-09-29T05:01:16.511Z,84
2016-09-29T05:01:37.097Z,88
2016-09-29T05:01:57.699Z,88
2016-09-29T05:02:18.268Z,92
2016-09-29T05:02:38.847Z,92
2016-09-29T05:02:59.420Z,96
2016-09-29T05:03:20.003Z,96
2016-09-29T05:03:40.598Z,96